Terminal Aerodrome Forecast
Issued by NWS

Home | Current Version | Previous Version | Text Only | Print | Product List | Glossary On
Versions: 1 2 3 4 5 6 7 8 9 10 11 12 13 14 15 16 17 18 19 20 21
000
FTUS46 KSEW 091115 AAC
TAFOLM
TAF AMD
KOLM 091115Z 0911/1006 17005KT 4SM -FZRA BR BKN005 OVC011
      TEMPO 0911/0913 1 1/2SM -SN OVC005
     FM091500 20006KT 3SM -RA BR SCT009 BKN015 OVC030=

USA.gov is the U.S. government's official web portal to all federal, state and local government web resources and services.